createdAt,value
2023-01-15T00:00:18.335Z,0.80
2023-01-15T00:02:44.708Z,2.25
2023-01-15T00:05:11.054Z,1.05
2023-01-15T00:07:37.367Z,0.68
2023-01-15T00:10:04.147Z,1.17
2023-01-15T00:12:30.462Z,0.75
2023-01-15T00:14:58.116Z,0.90
2023-01-15T00:17:24.804Z,1.23
2023-01-15T00:19:51.126Z,1.63
2023-01-15T00:22:17.419Z,0.95
2023-01-15T00:25:02.387Z,2.15
2023-01-15T00:27:39.559Z,1.98
2023-01-15T00:30:09.380Z,1.33
2023-01-15T00:32:37.509Z,1.98
2023-01-15T00:35:04.130Z,3.03
2023-01-15T00:37:30.436Z,1.48
2023-01-15T00:39:56.802Z,2.63
2023-01-15T00:42:23.174Z,0.57
2023-01-15T00:44:49.683Z,0.95
2023-01-15T00:47:16.031Z,1.63
2023-01-15T00:49:42.970Z,2.05
2023-01-15T00:52:10.129Z,0.63
2023-01-15T00:54:36.458Z,1.00
2023-01-15T00:57:02.958Z,0.65
2023-01-15T00:59:29.497Z,2.50
2023-01-15T01:01:55.940Z,2.97
2023-01-15T01:04:22.338Z,0.80
2023-01-15T01:06:48.625Z,1.38
2023-01-15T01:09:16.470Z,2.15
2023-01-15T01:11:43.245Z,1.17
2023-01-15T01:14:11.795Z,3.42
2023-01-15T01:16:40.083Z,2.03
2023-01-15T01:19:09.616Z,1.67
2023-01-15T01:21:37.985Z,0.80
2023-01-15T01:24:04.690Z,1.45
2023-01-15T01:26:31.388Z,3.65
2023-01-15T01:28:57.897Z,0.85
2023-01-15T01:31:24.727Z,1.20
2023-01-15T01:33:53.625Z,1.73
2023-01-15T01:36:20.971Z,4.20
2023-01-15T01:38:49.644Z,3.15
2023-01-15T01:41:19.761Z,3.17
2023-01-15T01:43:54.092Z,2.42
2023-01-15T01:46:20.559Z,2.63
2023-01-15T01:48:50.404Z,3.35
2023-01-15T01:51:19.623Z,2.90
2023-01-15T01:53:46.178Z,2.92
2023-01-15T01:56:12.630Z,1.88
2023-01-15T01:58:39.486Z,1.10
2023-01-15T02:01:06.296Z,0.80
2023-01-15T02:03:38.099Z,0.90
2023-01-15T02:06:08.667Z,1.40
2023-01-15T02:08:35.479Z,1.40
2023-01-15T02:11:02.202Z,1.23
2023-01-15T02:14:24.450Z,0.40
2023-01-15T02:16:56.652Z,1.00
2023-01-15T02:19:54.535Z,1.38
2023-01-15T02:22:33.292Z,0.20
2023-01-15T02:25:12.200Z,0.98
2023-01-15T02:27:49.105Z,2.47
2023-01-15T02:30:23.023Z,0.82
2023-01-15T02:33:18.032Z,1.98
2023-01-15T02:35:50.235Z,2.00
2023-01-15T02:38:21.257Z,0.38
2023-01-15T02:40:54.240Z,2.60
2023-01-15T02:43:23.704Z,2.03
2023-01-15T02:45:56.996Z,0.40
2023-01-15T02:48:27.265Z,1.23
2023-01-15T02:51:05.579Z,1.55
2023-01-15T02:53:37.574Z,0.20
2023-01-15T02:56:09.796Z,1.13
2023-01-15T02:58:44.974Z,0.20
2023-01-15T03:01:20.016Z,1.60
2023-01-15T03:04:02.032Z,2.92
2023-01-15T03:06:38.532Z,1.08
2023-01-15T03:09:06.213Z,0.93
2023-01-15T03:11:38.524Z,2.17
2023-01-15T03:14:09.110Z,0.75
2023-01-15T03:16:38.341Z,2.17
2023-01-15T03:19:25.996Z,1.33
2023-01-15T03:22:04.752Z,1.75
2023-01-15T03:24:35.805Z,4.25
2023-01-15T03:27:03.448Z,2.10
2023-01-15T03:29:46.171Z,1.42
2023-01-15T03:32:13.231Z,1.88
2023-01-15T03:34:46.226Z,1.23
2023-01-15T03:37:18.675Z,1.77
2023-01-15T03:39:45.222Z,0.32
2023-01-15T03:42:39.430Z,0.50
2023-01-15T03:45:23.279Z,3.22
2023-01-15T03:48:00.471Z,0.50
2023-01-15T03:50:33.393Z,0.45
2023-01-15T03:53:34.266Z,0.30
2023-01-15T03:56:33.000Z,1.75
2023-01-15T03:59:16.773Z,1.83
2023-01-15T04:01:52.480Z,0.38
2023-01-15T04:04:24.772Z,2.42
2023-01-15T04:06:52.305Z,0.50
2023-01-15T04:09:19.440Z,0.73
2023-01-15T04:11:47.013Z,0.40
2023-01-15T04:14:14.764Z,2.65
2023-01-15T04:16:44.170Z,3.17
2023-01-15T04:19:12.069Z,4.28
2023-01-15T04:21:45.289Z,0.90
2023-01-15T04:24:11.606Z,0.85
2023-01-15T04:26:37.909Z,1.17
2023-01-15T04:29:04.227Z,1.30
2023-01-15T04:31:33.261Z,1.55
2023-01-15T04:34:00.110Z,1.58
2023-01-15T04:36:26.457Z,0.43
2023-01-15T04:38:54.483Z,2.58
2023-01-15T04:41:39.269Z,2.55
2023-01-15T04:44:08.399Z,3.45
2023-01-15T04:46:45.478Z,2.85
2023-01-15T04:49:15.383Z,1.38
2023-01-15T04:51:41.946Z,0.63
2023-01-15T04:54:10.696Z,0.43
2023-01-15T04:56:40.796Z,2.72
2023-01-15T04:59:07.294Z,0.60
2023-01-15T05:01:33.765Z,2.92
2023-01-15T05:04:01.601Z,2.13
2023-01-15T05:06:28.857Z,1.33
2023-01-15T05:08:55.267Z,1.65
2023-01-15T05:11:21.597Z,3.65
2023-01-15T05:13:47.922Z,2.88
2023-01-15T05:16:15.650Z,3.30
2023-01-15T05:18:43.131Z,0.73
2023-01-15T05:21:37.227Z,3.72
2023-01-15T05:24:06.539Z,3.88
2023-01-15T05:26:33.497Z,1.58
2023-01-15T05:29:00.616Z,2.60
2023-01-15T05:31:28.522Z,0.50
2023-01-15T05:33:55.814Z,2.28
2023-01-15T05:36:25.593Z,1.42
2023-01-15T05:38:53.685Z,2.17
2023-01-15T05:41:39.610Z,2.83
2023-01-15T05:44:09.735Z,0.55
2023-01-15T05:46:38.965Z,1.85
2023-01-15T05:49:08.216Z,1.75
2023-01-15T05:51:36.293Z,1.30
2023-01-15T05:54:04.454Z,1.27
2023-01-15T05:56:30.870Z,4.30
2023-01-15T05:58:57.342Z,3.08
2023-01-15T06:01:23.703Z,1.88
2023-01-15T06:03:50.093Z,1.17
2023-01-15T06:06:18.391Z,2.13
2023-01-15T06:08:46.018Z,2.35
2023-01-15T06:11:12.932Z,1.10
2023-01-15T06:13:39.996Z,2.55
2023-01-15T06:16:07.561Z,1.42
2023-01-15T06:18:35.413Z,1.02
2023-01-15T06:21:07.062Z,4.20
2023-01-15T06:23:36.508Z,3.72
2023-01-15T06:26:05.861Z,1.85
2023-01-15T06:28:32.667Z,3.60
2023-01-15T06:30:58.987Z,0.40
2023-01-15T06:33:25.530Z,2.45
2023-01-15T06:35:52.282Z,1.70
2023-01-15T06:38:18.599Z,2.38
2023-01-15T06:40:44.938Z,1.80
2023-01-15T06:43:29.917Z,1.48
2023-01-15T06:46:26.358Z,2.45
2023-01-15T06:48:53.656Z,1.25
2023-01-15T06:51:21.358Z,0.80
2023-01-15T06:53:47.823Z,2.95
2023-01-15T06:56:15.001Z,0.98
2023-01-15T06:58:42.427Z,1.25
2023-01-15T07:01:10.901Z,2.58
2023-01-15T07:03:37.390Z,1.85
2023-01-15T07:06:11.787Z,0.95
2023-01-15T07:08:38.821Z,0.30
2023-01-15T07:11:07.668Z,1.00
2023-01-15T07:13:34.712Z,1.75
2023-01-15T07:16:02.352Z,0.30
2023-01-15T07:18:30.170Z,0.38
2023-01-15T07:20:57.764Z,2.90
2023-01-15T07:23:26.037Z,0.30
2023-01-15T07:25:53.633Z,0.68
2023-01-15T07:28:21.613Z,0.30
2023-01-15T07:30:48.035Z,0.28
2023-01-15T07:33:14.596Z,0.20
2023-01-15T07:35:41.370Z,0.90
2023-01-15T07:38:07.712Z,1.08
2023-01-15T07:40:34.057Z,0.57
2023-01-15T07:43:19.042Z,0.30
2023-01-15T07:46:03.813Z,0.20
2023-01-15T07:48:49.021Z,0.22
2023-01-15T07:51:15.476Z,0.43
2023-01-15T07:53:41.823Z,0.30
2023-01-15T07:56:08.705Z,0.30
2023-01-15T07:58:35.109Z,0.32
2023-01-15T08:01:01.564Z,0.88
2023-01-15T08:03:28.080Z,0.30
2023-01-15T08:05:56.757Z,6.15
2023-01-15T08:08:23.169Z,5.60
2023-01-15T08:11:08.243Z,12.18
2023-01-15T08:13:52.971Z,37.58
2023-01-15T08:16:19.311Z,27.25
2023-01-15T08:18:46.583Z,26.58
2023-01-15T08:21:15.602Z,30.20
2023-01-15T08:23:43.374Z,20.50
2023-01-15T08:26:09.703Z,47.20
2023-01-15T08:28:36.038Z,15.98
2023-01-15T08:31:02.366Z,33.75
2023-01-15T08:33:28.735Z,15.93
2023-01-15T08:35:56.925Z,16.77
2023-01-15T08:38:23.208Z,28.52
2023-01-15T08:40:59.233Z,15.02
2023-01-15T08:43:32.385Z,16.60
2023-01-15T08:46:05.253Z,16.83
2023-01-15T08:48:32.530Z,13.93
2023-01-15T08:50:59.228Z,16.52
2023-01-15T08:53:26.280Z,6.93
2023-01-15T08:55:52.619Z,8.63
2023-01-15T08:58:18.982Z,8.73
2023-01-15T09:00:45.367Z,8.80
2023-01-15T09:03:11.745Z,5.22
2023-01-15T09:05:38.357Z,4.45
2023-01-15T09:08:06.347Z,5.47
2023-01-15T09:10:34.084Z,5.55
2023-01-15T09:13:01.821Z,3.80
2023-01-15T09:15:33.287Z,3.47
2023-01-15T09:18:00.463Z,3.08
2023-01-15T09:20:26.875Z,4.72
2023-01-15T09:22:53.431Z,2.17
2023-01-15T09:25:26.359Z,1.75
2023-01-15T09:27:56.238Z,2.28
2023-01-15T09:30:23.508Z,2.30
2023-01-15T09:32:49.862Z,2.30
2023-01-15T09:35:16.374Z,1.75
2023-01-15T09:37:42.945Z,0.40
2023-01-15T09:40:29.440Z,1.35
2023-01-15T09:43:06.731Z,1.00
2023-01-15T09:45:44.277Z,2.10
2023-01-15T09:48:53.406Z,2.70
2023-01-15T09:51:40.533Z,5.40
2023-01-15T09:54:34.324Z,6.47
2023-01-15T09:57:01.266Z,3.47
2023-01-15T09:59:40.703Z,2.33
2023-01-15T10:02:51.426Z,4.15
2023-01-15T10:05:30.551Z,7.37
2023-01-15T10:08:23.917Z,8.90
2023-01-15T10:10:56.752Z,14.25
2023-01-15T10:13:46.382Z,23.20
2023-01-15T10:16:20.646Z,19.67
2023-01-15T10:18:47.157Z,19.35
2023-01-15T10:21:32.061Z,10.32
2023-01-15T10:24:14.680Z,14.68
2023-01-15T10:26:54.123Z,4.80
2023-01-15T10:29:35.636Z,4.78
2023-01-15T10:32:14.044Z,4.10
2023-01-15T10:35:09.199Z,5.38
2023-01-15T10:37:46.864Z,7.72
2023-01-15T10:40:50.663Z,12.35
2023-01-15T10:43:56.340Z,10.07
2023-01-15T10:46:27.466Z,4.30
2023-01-15T10:51:49.339Z,8.40
2023-01-15T10:54:32.899Z,8.68
2023-01-15T10:57:19.264Z,15.82
2023-01-15T11:00:12.416Z,9.88
2023-01-15T11:03:01.699Z,6.70
2023-01-15T11:05:28.856Z,8.95
2023-01-15T11:08:26.317Z,5.38
2023-01-15T11:10:42.157Z,8.13
2023-01-15T11:13:40.980Z,3.45
2023-01-15T11:16:35.810Z,5.15
2023-01-15T11:19:24.110Z,4.38
2023-01-15T11:21:53.440Z,3.97
2023-01-15T11:24:20.756Z,5.45
2023-01-15T11:26:51.360Z,3.83
2023-01-15T11:29:32.406Z,6.47
2023-01-15T11:31:58.827Z,4.25
2023-01-15T11:34:25.226Z,5.43
2023-01-15T11:37:04.784Z,6.72
2023-01-15T11:39:31.931Z,2.78
2023-01-15T11:42:21.729Z,7.97
2023-01-15T11:45:14.722Z,2.72
2023-01-15T11:48:13.701Z,4.97
2023-01-15T11:50:53.761Z,5.82
2023-01-15T11:53:25.287Z,8.30
2023-01-15T11:55:54.908Z,6.30
2023-01-15T11:58:22.090Z,5.50
2023-01-15T12:00:52.863Z,2.55
2023-01-15T12:03:22.736Z,5.00
2023-01-15T12:06:05.410Z,4.72
2023-01-15T12:08:43.444Z,2.70
2023-01-15T12:11:27.185Z,4.38
2023-01-15T12:14:29.561Z,5.75
2023-01-15T12:17:35.210Z,2.83
2023-01-15T12:20:27.243Z,8.10
2023-01-15T12:23:22.215Z,6.47
2023-01-15T12:26:17.399Z,4.90
2023-01-15T12:28:54.123Z,4.03
2023-01-15T12:31:27.321Z,3.90
2023-01-15T12:34:01.147Z,3.20
2023-01-15T12:36:37.842Z,5.10
2023-01-15T12:39:14.177Z,2.20
2023-01-15T12:42:04.431Z,4.70
2023-01-15T12:45:03.788Z,3.17
2023-01-15T12:47:37.632Z,2.10
2023-01-15T12:50:36.600Z,3.47
2023-01-15T12:53:21.890Z,2.30
2023-01-15T12:55:59.884Z,5.53
2023-01-15T12:58:26.224Z,4.22
2023-01-15T13:01:03.880Z,0.90
2023-01-15T13:03:38.669Z,2.83
2023-01-15T13:06:08.557Z,2.88
2023-01-15T13:08:47.101Z,3.70
2023-01-15T13:11:13.712Z,2.05
2023-01-15T13:13:41.845Z,2.63
2023-01-15T13:16:17.726Z,6.20
2023-01-15T13:19:11.530Z,3.25
2023-01-15T13:21:40.277Z,4.38
2023-01-15T13:24:23.826Z,5.65
2023-01-15T13:27:27.517Z,1.63
2023-01-15T13:30:21.980Z,4.32
2023-01-15T13:32:53.684Z,3.72
2023-01-15T13:35:34.060Z,4.85
2023-01-15T13:38:05.369Z,5.03
2023-01-15T13:40:40.884Z,6.78
2023-01-15T13:43:09.857Z,4.40
2023-01-15T13:45:42.814Z,3.60
2023-01-15T13:48:16.766Z,5.28
2023-01-15T13:50:55.080Z,6.35
2023-01-15T13:53:44.448Z,7.10
2023-01-15T13:56:15.136Z,9.27
2023-01-15T13:58:59.556Z,6.68
2023-01-15T14:01:35.809Z,2.35
2023-01-15T14:04:05.611Z,8.77
2023-01-15T14:06:40.872Z,5.15
2023-01-15T14:09:14.213Z,2.67
2023-01-15T14:12:17.341Z,7.05
2023-01-15T14:15:08.894Z,3.17
2023-01-15T14:18:00.624Z,6.82
2023-01-15T14:20:37.976Z,4.60
2023-01-15T14:23:39.122Z,9.68
2023-01-15T14:26:21.870Z,9.68
2023-01-15T14:29:29.201Z,4.40
2023-01-15T14:32:11.092Z,6.82
2023-01-15T14:34:38.168Z,8.75
2023-01-15T14:37:24.754Z,9.75
2023-01-15T14:39:55.457Z,5.55
2023-01-15T14:42:40.555Z,2.88
2023-01-15T14:45:17.943Z,5.25
2023-01-15T14:47:47.382Z,6.82
2023-01-15T14:50:33.295Z,5.32
2023-01-15T14:53:07.444Z,5.22
2023-01-15T14:55:39.411Z,4.45
2023-01-15T14:58:16.975Z,2.53
2023-01-15T15:00:48.420Z,5.20
2023-01-15T15:03:24.923Z,3.97
2023-01-15T15:05:52.014Z,5.68
2023-01-15T15:08:19.760Z,4.93
2023-01-15T15:10:54.331Z,2.80
2023-01-15T15:13:27.746Z,8.90
2023-01-15T15:16:25.309Z,3.15
2023-01-15T15:19:01.466Z,5.43
2023-01-15T15:21:40.102Z,1.85
2023-01-15T15:24:20.380Z,4.60
2023-01-15T15:26:46.809Z,1.88
2023-01-15T15:29:15.331Z,4.50
2023-01-15T15:31:55.954Z,4.75
2023-01-15T15:34:41.281Z,4.20
2023-01-15T15:37:24.769Z,6.63
2023-01-15T15:40:02.342Z,3.83
2023-01-15T15:43:29.359Z,3.85
2023-01-15T15:46:15.607Z,3.65
2023-01-15T15:48:50.953Z,5.38
2023-01-15T15:51:32.953Z,2.55
2023-01-15T15:54:10.433Z,6.18
2023-01-15T15:56:39.046Z,4.93
2023-01-15T15:59:05.750Z,3.38
2023-01-15T16:01:39.433Z,4.93
2023-01-15T16:04:05.961Z,3.80
2023-01-15T16:06:33.175Z,7.07
2023-01-15T16:09:04.407Z,4.45
2023-01-15T16:14:00.230Z,2.25
2023-01-15T16:16:28.339Z,4.28
2023-01-15T16:18:57.968Z,5.10
2023-01-15T16:21:28.898Z,2.00
2023-01-15T16:24:02.253Z,2.78
2023-01-15T16:26:34.211Z,4.10
2023-01-15T16:29:04.280Z,14.13
2023-01-15T16:31:35.783Z,17.38
2023-01-15T16:34:03.436Z,40.90
2023-01-15T16:36:38.517Z,17.45
2023-01-15T16:39:06.780Z,13.43
2023-01-15T16:41:42.218Z,20.92
2023-01-15T16:44:25.129Z,8.98
2023-01-15T16:46:57.595Z,9.98
2023-01-15T16:49:23.955Z,14.80
2023-01-15T16:51:51.838Z,11.52
2023-01-15T16:54:30.337Z,18.67
2023-01-15T16:57:05.423Z,12.10
2023-01-15T16:59:31.799Z,15.05
2023-01-15T17:02:13.419Z,12.32
2023-01-15T17:04:45.478Z,16.92
2023-01-15T17:07:34.991Z,7.05
2023-01-15T17:10:03.564Z,17.88
2023-01-15T17:12:35.625Z,13.60
2023-01-15T17:15:14.079Z,15.73
2023-01-15T17:17:48.319Z,13.30
2023-01-15T17:20:15.991Z,15.93
2023-01-15T17:22:44.927Z,18.50
2023-01-15T17:25:22.696Z,16.02
2023-01-15T17:27:49.163Z,10.60
2023-01-15T17:30:16.214Z,9.93
2023-01-15T17:32:42.782Z,11.82
2023-01-15T17:35:22.512Z,8.80
2023-01-15T17:37:49.171Z,9.68
2023-01-15T17:40:15.676Z,12.23
2023-01-15T17:42:42.124Z,10.85
2023-01-15T17:45:20.110Z,13.20
2023-01-15T17:47:46.465Z,15.52
2023-01-15T17:50:14.430Z,20.50
2023-01-15T17:52:42.567Z,23.27
2023-01-15T17:55:30.537Z,18.25
2023-01-15T17:58:16.433Z,25.33
2023-01-15T18:01:01.703Z,14.13
2023-01-15T18:03:47.709Z,17.38
2023-01-15T18:06:16.124Z,22.23
2023-01-15T18:08:47.415Z,13.18
2023-01-15T18:11:13.730Z,11.75
2023-01-15T18:13:43.001Z,6.90
2023-01-15T18:16:10.120Z,18.15
2023-01-15T18:18:36.802Z,21.05
2023-01-15T18:21:03.700Z,16.83
2023-01-15T18:23:34.247Z,19.55
2023-01-15T18:26:04.785Z,11.95
2023-01-15T18:28:32.568Z,10.82
2023-01-15T18:30:58.947Z,8.63
2023-01-15T18:33:25.272Z,24.48
2023-01-15T18:36:01.904Z,21.35
2023-01-15T18:38:28.290Z,26.40
2023-01-15T18:40:54.746Z,30.55
2023-01-15T18:43:39.485Z,29.30
2023-01-15T18:46:24.735Z,19.45
2023-01-15T18:48:51.074Z,23.42
2023-01-15T18:51:17.407Z,17.05
2023-01-15T18:53:43.751Z,14.95
2023-01-15T18:56:10.117Z,9.38
2023-01-15T18:58:36.407Z,24.90
2023-01-15T19:01:07.303Z,13.85
2023-01-15T19:03:33.759Z,14.70
2023-01-15T19:06:10.136Z,10.93
2023-01-15T19:08:36.478Z,20.20
2023-01-15T19:11:13.188Z,12.52
2023-01-15T19:13:39.620Z,10.10
2023-01-15T19:16:25.185Z,6.47
2023-01-15T19:18:54.817Z,10.63
2023-01-15T19:21:21.501Z,26.85
2023-01-15T19:23:48.158Z,15.18
2023-01-15T19:26:14.801Z,10.85
2023-01-15T19:28:41.160Z,13.73
2023-01-15T19:31:28.012Z,15.45
2023-01-15T19:34:31.166Z,15.20
2023-01-15T19:36:45.777Z,11.32
2023-01-15T19:39:12.177Z,17.13
2023-01-15T19:41:57.252Z,11.88
2023-01-15T19:44:42.730Z,15.35
2023-01-15T19:47:32.526Z,15.73
2023-01-15T19:50:21.828Z,11.18
2023-01-15T19:52:53.495Z,19.05
2023-01-15T19:55:21.398Z,13.38
2023-01-15T19:57:55.065Z,14.45
2023-01-15T20:00:22.884Z,14.02
2023-01-15T20:02:49.572Z,32.90
2023-01-15T20:05:16.996Z,55.72
2023-01-15T20:07:43.679Z,27.52
2023-01-15T20:10:13.735Z,33.90
2023-01-15T20:12:59.220Z,54.88
2023-01-15T20:15:26.542Z,23.38
2023-01-15T20:17:53.070Z,10.07
2023-01-15T20:20:19.647Z,14.23
2023-01-15T20:22:46.045Z,9.13
2023-01-15T20:25:12.456Z,10.40
2023-01-15T20:27:40.055Z,7.03
2023-01-15T20:30:15.712Z,4.65
2023-01-15T20:32:44.803Z,4.80
2023-01-15T20:35:14.268Z,7.00
2023-01-15T20:37:41.204Z,5.20
2023-01-15T20:40:09.025Z,4.28
2023-01-15T20:42:54.707Z,8.52
2023-01-15T20:45:21.307Z,7.78
2023-01-15T20:48:06.297Z,2.85
2023-01-15T20:50:35.904Z,3.88
2023-01-15T20:53:04.684Z,2.20
2023-01-15T20:55:45.691Z,3.72
2023-01-15T20:58:21.228Z,8.77
2023-01-15T21:00:47.637Z,12.35
2023-01-15T21:03:14.077Z,5.25
2023-01-15T21:05:40.406Z,5.43
2023-01-15T21:08:06.756Z,8.50
2023-01-15T21:10:33.042Z,17.48
2023-01-15T21:12:59.495Z,8.85
2023-01-15T21:15:25.837Z,7.82
2023-01-15T21:17:52.207Z,18.15
2023-01-15T21:20:18.556Z,19.98
2023-01-15T21:22:45.015Z,15.50
2023-01-15T21:25:13.021Z,30.48
2023-01-15T21:27:39.866Z,18.60
2023-01-15T21:30:07.780Z,23.02
2023-01-15T21:32:34.360Z,17.08
2023-01-15T21:35:00.673Z,36.30
2023-01-15T21:37:27.046Z,34.08
2023-01-15T21:39:53.362Z,17.85
2023-01-15T21:42:39.950Z,14.20
2023-01-15T21:45:07.773Z,23.00
2023-01-15T21:47:36.627Z,55.13
2023-01-15T21:50:06.122Z,39.72
2023-01-15T21:52:33.766Z,36.60
2023-01-15T21:55:00.406Z,51.42
2023-01-15T21:57:28.900Z,53.00
2023-01-15T21:59:55.303Z,34.58
2023-01-15T22:02:23.143Z,59.42
2023-01-15T22:04:49.778Z,35.72
2023-01-15T22:07:17.867Z,26.08
2023-01-15T22:09:44.534Z,22.10
2023-01-15T22:12:12.169Z,27.83
2023-01-15T22:14:38.602Z,45.17
2023-01-15T22:17:05.645Z,34.83
2023-01-15T22:19:32.548Z,43.90
2023-01-15T22:22:08.045Z,33.10
2023-01-15T22:24:36.807Z,20.05
2023-01-15T22:27:06.392Z,16.58
2023-01-15T22:29:38.114Z,15.88
2023-01-15T22:32:05.714Z,16.17
2023-01-15T22:34:32.024Z,19.58
2023-01-15T22:36:58.496Z,11.80
2023-01-15T22:39:25.867Z,8.32
2023-01-15T22:42:10.860Z,9.85
2023-01-15T22:44:37.385Z,7.47
2023-01-15T22:47:05.043Z,6.45
2023-01-15T22:49:31.905Z,8.50
2023-01-15T22:51:58.233Z,3.15
2023-01-15T22:54:24.633Z,5.15
2023-01-15T22:56:50.942Z,4.90
2023-01-15T22:59:17.455Z,4.30
2023-01-15T23:01:43.887Z,6.35
2023-01-15T23:04:19.097Z,6.80
2023-01-15T23:06:45.610Z,4.68
2023-01-15T23:09:12.786Z,2.72
2023-01-15T23:11:39.347Z,4.20
2023-01-15T23:14:07.632Z,4.90
2023-01-15T23:16:34.667Z,5.00
2023-01-15T23:19:01.791Z,3.47
2023-01-15T23:21:28.611Z,7.75
2023-01-15T23:23:56.794Z,6.20
2023-01-15T23:26:24.329Z,5.75
2023-01-15T23:28:50.897Z,6.05
2023-01-15T23:31:18.689Z,3.90
2023-01-15T23:33:45.535Z,3.08
2023-01-15T23:36:12.217Z,3.35
2023-01-15T23:38:40.171Z,3.63
2023-01-15T23:41:14.003Z,5.68
2023-01-15T23:43:59.502Z,5.28
2023-01-15T23:46:35.447Z,6.05
2023-01-15T23:49:07.267Z,1.88
2023-01-15T23:51:33.725Z,10.68
2023-01-15T23:54:01.276Z,5.45
2023-01-15T23:56:29.594Z,1.42
2023-01-15T23:58:56.926Z,4.28
